Time;durP1;ratioP1;P1;durP2;ratioP2;P2;SDS_P1;SDS_P2;PMS_P1;PMS_P2;Temp;Humidity;BMP_temperature;BMP_pressure;BME280_temperature;BME280_humidity;BME280_pressure;Samples;Min_cycle;Max_cycle;Signal;HPM_P1;HPM_P2
2023/07/14 00:00:56;;;;;;;8.80;5.80;;;;;;;32.30;93.96;99889.70;106236;1260;61607;-91
2023/07/14 00:03:45;;;;;;;11.40;6.60;;;;;;;32.27;94.40;99876.77;106181;1256;64997;-92
2023/07/14 00:06:36;;;;;;;10.90;5.80;;;;;;;32.29;94.36;99874.14;106227;1256;61317;-91
2023/07/14 00:09:26;;;;;;;11.80;5.80;;;;;;;32.31;94.32;99871.67;106124;1256;61344;-91
2023/07/14 00:12:14;;;;;;;9.20;6.10;;;;;;;32.24;95.08;99869.19;106241;1255;66831;-92
2023/07/14 00:15:03;;;;;;;11.20;6.10;;;;;;;32.16;96.34;99878.36;106031;1256;61300;-93
2023/07/14 00:17:57;;;;;;;11.10;5.40;;;;;;;32.05;98.54;99889.91;106163;1256;63854;-91
2023/07/14 00:20:48;;;;;;;10.70;6.10;;;;;;;32.06;99.43;99894.73;106216;1260;61294;-92
2023/07/14 00:23:37;;;;;;;8.10;5.70;;;;;;;32.18;99.24;99894.05;106475;1260;61268;-91
2023/07/14 00:26:26;;;;;;;7.40;5.80;;;;;;;32.16;99.94;99890.79;106039;1258;66798;-92
2023/07/14 00:29:30;;;;;;;10.00;5.70;;;;;;;32.19;100.00;99895.09;106048;1255;61697;-91
2023/07/14 00:32:20;;;;;;;12.50;6.60;;;;;;;32.22;100.00;99907.20;106299;1256;65122;-92
2023/07/14 00:35:19;;;;;;;12.80;6.90;;;;;;;32.22;100.00;99919.21;106316;1258;61336;-91
2023/07/14 00:38:08;;;;;;;11.40;6.40;;;;;;;32.21;100.00;99912.88;106119;1260;61115;-91
2023/07/14 00:40:57;;;;;;;12.10;6.90;;;;;;;32.04;100.00;99913.02;106069;1255;65735;-91
2023/07/14 00:43:49;;;;;;;11.80;7.40;;;;;;;31.87;100.00;99907.02;106264;1256;61096;-92
2023/07/14 00:46:37;;;;;;;13.90;7.40;;;;;;;31.63;100.00;99905.38;106079;1256;65817;-87
2023/07/14 00:49:35;;;;;;;11.50;7.40;;;;;;;31.49;100.00;99901.65;106298;1256;61272;-87
2023/07/14 00:52:28;;;;;;;12.70;7.70;;;;;;;31.29;100.00;99896.45;106268;1255;61257;-87
2023/07/14 00:55:35;;;;;;;11.80;7.40;;;;;;;31.27;100.00;99890.77;106172;1256;64842;-87
2023/07/14 00:58:25;;;;;;;12.50;7.70;;;;;;;31.16;100.00;99897.30;106056;1256;61088;-89
2023/07/14 01:01:22;;;;;;;13.50;7.30;;;;;;;31.14;100.00;99900.97;105988;1256;64818;-86
2023/07/14 01:04:11;;;;;;;15.40;8.70;;;;;;;31.21;100.00;99904.30;105960;1255;61376;-88
2023/07/14 01:06:59;;;;;;;13.60;8.70;;;;;;;31.30;100.00;99904.04;106185;1256;61245;-88
2023/07/14 01:09:48;;;;;;;14.90;8.80;;;;;;;31.33;100.00;99918.33;106127;1256;67042;-87
2023/07/14 01:12:37;;;;;;;14.10;8.90;;;;;;;31.28;100.00;99923.98;106107;1256;61466;-88
2023/07/14 01:15:26;;;;;;;14.50;8.80;;;;;;;31.21;100.00;99920.75;106099;1261;73814;-88
2023/07/14 01:18:14;;;;;;;11.50;8.20;;;;;;;31.13;100.00;99924.77;106335;1259;61233;-87
2023/07/14 01:21:02;;;;;;;11.60;6.80;;;;;;;31.04;100.00;99929.38;106267;1255;61265;-87
2023/07/14 01:23:58;;;;;;;10.30;5.30;;;;;;;30.97;100.00;99928.06;106121;1256;67254;-88
2023/07/14 01:27:05;;;;;;;13.00;4.90;;;;;;;30.80;100.00;99935.77;106272;1256;61367;-88
2023/07/14 01:29:53;;;;;;;7.50;3.60;;;;;;;30.69;100.00;99931.61;105961;1259;63859;-88
2023/07/14 01:32:44;;;;;;;7.00;5.40;;;;;;;30.56;100.00;99933.60;106213;1256;61250;-88
2023/07/14 01:35:35;;;;;;;9.20;5.50;;;;;;;30.46;100.00;99932.97;106237;1256;60709;-88
2023/07/14 01:38:24;;;;;;;11.30;6.50;;;;;;;30.47;100.00;99933.19;106080;1256;65989;-86
2023/07/14 01:41:13;;;;;;;9.10;5.90;;;;;;;30.35;100.00;99929.44;106318;1260;61366;-87
2023/07/14 01:44:03;;;;;;;8.50;6.50;;;;;;;30.32;100.00;99926.17;105924;1261;64968;-86
2023/07/14 01:46:51;;;;;;;7.00;5.60;;;;;;;30.28;100.00;99923.58;106205;1256;61239;-87
2023/07/14 01:49:43;;;;;;;7.60;5.80;;;;;;;30.15;100.00;99908.48;106258;1255;61128;-88
2023/07/14 01:52:31;;;;;;;7.60;5.30;;;;;;;30.13;100.00;99904.39;106286;1256;65735;-88
2023/07/14 01:55:21;;;;;;;6.90;5.10;;;;;;;30.13;100.00;99905.29;106014;1256;61430;-89
2023/07/14 01:58:17;;;;;;;6.30;4.80;;;;;;;30.10;100.00;99901.88;106055;1256;65040;-88
2023/07/14 02:01:04;;;;;;;6.80;4.90;;;;;;;30.02;100.00;99900.23;106053;1261;61724;-88
2023/07/14 02:03:54;;;;;;;5.60;4.50;;;;;;;29.96;100.00;99897.88;105962;1255;60376;-89
2023/07/14 02:06:43;;;;;;;8.10;5.10;;;;;;;30.04;100.00;99896.89;106321;1256;74568;-88
2023/07/14 02:09:31;;;;;;;5.10;4.00;;;;;;;30.05;100.00;99897.42;106272;1255;61230;-88
2023/07/14 02:12:28;;;;;;;6.40;4.00;;;;;;;30.08;100.00;99900.70;106060;1260;64788;-88
2023/07/14 02:15:18;;;;;;;6.50;4.00;;;;;;;30.11;100.00;99904.19;106154;1256;61301;-88
2023/07/14 02:18:10;;;;;;;6.10;4.50;;;;;;;30.18;100.00;99902.30;106163;1256;61206;-88
2023/07/14 02:20:58;;;;;;;;;;;;;;;30.21;100.00;99899.35;106130;1256;65898;-89
2023/07/14 02:23:46;;;;;;;8.10;4.20;;;;;;;30.25;100.00;99893.92;106280;1256;61163;-87
2023/07/14 02:26:36;;;;;;;7.60;3.50;;;;;;;30.25;100.00;99894.48;106176;1260;66046;-88
2023/07/14 02:29:25;;;;;;;7.30;3.50;;;;;;;30.21;100.00;99893.09;105967;1256;61316;-89
2023/07/14 02:32:32;;;;;;;2.30;2.10;;;;;;;30.25;100.00;99897.85;106034;1256;61264;-88
2023/07/14 02:35:30;;;;;;;6.20;2.80;;;;;;;30.20;100.00;99890.59;106329;1260;66069;-89
2023/07/14 02:38:18;;;;;;;5.20;3.00;;;;;;;30.13;100.00;99888.22;105942;1256;61329;-88
2023/07/14 02:41:37;;;;;;;8.20;3.00;;;;;;;30.03;100.00;99894.25;106176;1256;64071;-88
2023/07/14 02:44:33;;;;;;;4.50;2.60;;;;;;;30.02;100.00;99898.29;106175;1256;61241;-89
2023/07/14 02:47:22;;;;;;;4.00;2.40;;;;;;;29.98;100.00;99894.00;106175;1256;61279;-89
2023/07/14 02:50:11;;;;;;;4.30;2.50;;;;;;;28.67;100.00;99898.91;106171;1261;66020;-89
2023/07/14 02:52:59;;;;;;;8.00;3.50;;;;;;;27.27;100.00;99898.50;106042;1256;61360;-88
2023/07/14 02:55:48;;;;;;;4.70;2.40;;;;;;;27.54;100.00;99893.91;106119;1256;65727;-89
2023/07/14 02:58:36;;;;;;;4.00;3.00;;;;;;;27.29;100.00;99896.79;106138;1256;61354;-88
2023/07/14 03:01:25;;;;;;;3.90;2.40;;;;;;;27.35;100.00;99901.25;106096;1256;61334;-87
2023/07/14 03:04:13;;;;;;;4.40;2.70;;;;;;;27.93;100.00;99905.27;106247;1256;66616;-88
2023/07/14 03:07:02;;;;;;;3.00;2.70;;;;;;;27.89;100.00;99904.90;106076;1255;61189;-89
2023/07/14 03:09:51;;;;;;;4.20;2.80;;;;;;;28.18;100.00;99905.91;106087;1256;63962;-88
2023/07/14 03:12:39;;;;;;;4.40;2.80;;;;;;;28.45;100.00;99909.00;106043;1256;61392;-87
2023/07/14 03:15:28;;;;;;;8.00;3.30;;;;;;;28.54;100.00;99905.16;106150;1255;61234;-89
2023/07/14 03:18:16;;;;;;;8.00;3.10;;;;;;;28.62;100.00;99901.23;106173;1256;67061;-90
2023/07/14 03:21:05;;;;;;;8.30;2.90;;;;;;;28.71;100.00;99899.86;106458;1256;61172;-90
2023/07/14 03:23:53;;;;;;;6.20;3.30;;;;;;;28.39;100.00;99901.15;106046;1260;65127;-89
2023/07/14 03:26:42;;;;;;;6.50;2.90;;;;;;;28.56;100.00;99897.91;105972;1255;61273;-87
2023/07/14 03:29:30;;;;;;;3.30;3.00;;;;;;;29.00;100.00;99900.85;106198;1255;61128;-89
2023/07/14 03:32:18;;;;;;;6.60;3.30;;;;;;;29.28;100.00;99910.11;106162;1256;65024;-90
2023/07/14 03:35:07;;;;;;;4.40;3.80;;;;;;;29.53;100.00;99918.10;106025;1256;61289;-88
2023/07/14 03:37:55;;;;;;;5.90;3.70;;;;;;;29.67;100.00;99920.50;106187;1255;63848;-88
2023/07/14 03:40:44;;;;;;;4.40;3.60;;;;;;;29.84;100.00;99927.92;106160;1256;61316;-90
2023/07/14 03:43:34;;;;;;;3.90;3.20;;;;;;;29.94;100.00;99935.74;106445;1256;61314;-90
2023/07/14 03:46:23;;;;;;;5.40;3.70;;;;;;;30.04;100.00;99934.95;106353;1255;66942;-90
2023/07/14 03:49:13;;;;;;;5.20;3.70;;;;;;;30.11;100.00;99932.60;106044;1256;61342;-90
2023/07/14 03:52:00;;;;;;;3.80;3.20;;;;;;;30.35;100.00;99933.94;106281;1255;64063;-90
2023/07/14 03:54:51;;;;;;;5.50;3.20;;;;;;;30.51;100.00;99934.88;106069;1256;61178;-90
2023/07/14 03:57:40;;;;;;;6.80;3.80;;;;;;;30.69;100.00;99937.65;106109;1255;61248;-90
2023/07/14 04:00:33;;;;;;;6.30;3.50;;;;;;;30.87;100.00;99939.21;106711;1257;66989;-90
2023/07/14 04:03:21;;;;;;;7.70;3.20;;;;;;;30.92;100.00;99942.60;106018;1255;61313;-89
2023/07/14 04:06:09;;;;;;;6.10;3.30;;;;;;;30.88;100.00;99946.50;106048;1255;64375;-88
2023/07/14 04:08:59;;;;;;;4.70;3.40;;;;;;;30.88;100.00;99951.02;106250;1256;61376;-90
2023/07/14 04:11:51;;;;;;;5.50;3.30;;;;;;;30.99;100.00;99958.95;106145;1257;61347;-89
2023/07/14 04:14:40;;;;;;;2.60;2.40;;;;;;;30.97;100.00;99958.60;106019;1256;66964;-87
2023/07/14 04:17:29;;;;;;;3.50;2.40;;;;;;;30.98;100.00;99949.81;106241;1256;190388;-89
2023/07/14 04:20:17;;;;;;;3.30;2.30;;;;;;;31.00;100.00;99952.75;106126;1257;63501;-88
2023/07/14 04:23:05;;;;;;;4.20;1.90;;;;;;;30.96;100.00;99956.61;106267;1256;61206;-89
2023/07/14 04:25:54;;;;;;;4.10;1.80;;;;;;;30.91;100.00;99950.19;106180;1255;61360;-90
2023/07/14 04:28:42;;;;;;;2.20;1.80;;;;;;;30.88;100.00;99956.98;106115;1261;67041;-90
2023/07/14 04:31:31;;;;;;;4.90;1.90;;;;;;;30.86;100.00;99968.96;106209;1260;61408;-91
2023/07/14 04:34:19;;;;;;;4.70;2.50;;;;;;;30.84;100.00;99976.80;106185;1256;65177;-90
2023/07/14 04:37:07;;;;;;;4.20;2.60;;;;;;;30.84;100.00;99974.07;106080;1256;61468;-89
2023/07/14 04:39:57;;;;;;;3.50;2.00;;;;;;;30.92;100.00;99973.21;106092;1258;61513;-89
2023/07/14 04:42:47;;;;;;;4.40;2.60;;;;;;;30.89;100.00;99975.44;106142;1258;66659;-88
2023/07/14 04:45:42;;;;;;;3.60;2.30;;;;;;;30.90;100.00;99977.60;106212;1262;61395;-90
2023/07/14 04:48:35;;;;;;;3.90;2.60;;;;;;;30.97;100.00;99983.77;106025;1256;64856;-91
2023/07/14 04:51:22;;;;;;;4.90;2.70;;;;;;;30.96;100.00;99988.61;105920;1255;61291;-89
2023/07/14 04:54:11;;;;;;;5.20;2.90;;;;;;;30.90;100.00;99988.30;106087;1255;61138;-90
2023/07/14 04:56:59;;;;;;;3.70;3.00;;;;;;;30.84;100.00;99993.23;106114;1256;65810;-88
2023/07/14 04:59:47;;;;;;;7.60;3.80;;;;;;;30.84;100.00;99995.96;106034;1256;61366;-87
2023/07/14 05:02:36;;;;;;;4.20;3.50;;;;;;;30.85;100.00;99997.41;106137;1256;64955;-89
2023/07/14 05:05:26;;;;;;;6.40;3.50;;;;;;;30.79;100.00;99995.80;106042;1255;61268;-91
2023/07/14 05:08:14;;;;;;;4.50;3.60;;;;;;;30.82;100.00;99986.81;106071;1260;61171;-89
2023/07/14 05:11:03;;;;;;;6.60;3.80;;;;;;;30.98;100.00;99984.04;106086;1256;65968;-88
2023/07/14 05:13:52;;;;;;;4.50;3.60;;;;;;;31.19;100.00;99982.95;105964;1256;61939;-91
2023/07/14 05:16:40;;;;;;;5.60;3.50;;;;;;;31.27;100.00;99980.77;105978;1256;64458;-92
2023/07/14 05:19:29;;;;;;;5.60;3.60;;;;;;;31.34;100.00;99973.80;106002;1260;61283;-88
2023/07/14 05:22:17;;;;;;;7.30;4.00;;;;;;;31.60;100.00;99972.48;106116;1256;61236;-89
2023/07/14 05:25:05;;;;;;;5.20;4.10;;;;;;;31.94;100.00;99970.30;106192;1260;67161;-90
2023/07/14 05:27:54;;;;;;;6.30;4.50;;;;;;;32.30;100.00;99969.83;106063;1259;61108;-90
2023/07/14 05:30:42;;;;;;;5.20;3.80;;;;;;;32.52;100.00;99971.99;106013;1260;65095;-91
2023/07/14 05:33:30;;;;;;;4.90;3.50;;;;;;;32.36;100.00;99969.59;106157;1254;61304;-91
2023/07/14 05:36:19;;;;;;;3.90;3.40;;;;;;;32.16;100.00;99962.48;105887;1258;61325;-89
2023/07/14 05:39:07;;;;;;;5.70;3.80;;;;;;;32.21;100.00;99958.91;106220;1255;66954;-91
2023/07/14 05:41:58;;;;;;;4.90;3.60;;;;;;;32.09;100.00;99944.64;105932;1260;61363;-89
2023/07/14 05:44:47;;;;;;;4.30;3.60;;;;;;;31.29;100.00;99953.63;106123;1261;64635;-90
2023/07/14 05:47:37;;;;;;;6.00;3.90;;;;;;;31.10;100.00;99955.04;106307;1255;61358;-90
2023/07/14 05:50:25;;;;;;;5.60;3.80;;;;;;;31.42;100.00;99956.63;106053;1261;61242;-90
2023/07/14 05:53:14;;;;;;;5.70;4.20;;;;;;;31.70;100.00;99959.61;105993;1264;66787;-90
2023/07/14 05:56:04;;;;;;;6.60;4.00;;;;;;;31.78;100.00;99976.64;106204;1258;61158;-90
2023/07/14 05:58:51;;;;;;;3.80;3.30;;;;;;;31.76;100.00;99988.69;105824;1255;65477;-90
2023/07/14 06:01:40;;;;;;;5.40;3.50;;;;;;;31.55;100.00;100000.58;106278;1256;61275;-89
2023/07/14 06:04:30;;;;;;;5.10;3.70;;;;;;;31.53;100.00;100014.89;106230;1260;61275;-91
2023/07/14 06:07:18;;;;;;;5.20;4.10;;;;;;;31.53;100.00;100026.11;106048;1261;67176;-90
2023/07/14 06:10:07;;;;;;;4.40;4.00;;;;;;;31.47;100.00;100030.23;106134;1256;61447;-91
2023/07/14 06:12:55;;;;;;;5.70;4.40;;;;;;;31.38;100.00;100029.69;106095;1256;63928;-92
2023/07/14 06:15:49;;;;;;;6.00;4.00;;;;;;;31.20;100.00;100034.13;105951;1256;61280;-91
2023/07/14 06:18:38;;;;;;;7.00;4.30;;;;;;;31.03;100.00;100040.30;106281;1256;59362;-92
2023/07/14 06:21:27;;;;;;;5.70;3.70;;;;;;;31.03;100.00;100049.10;106282;1260;66927;-92
2023/07/14 06:24:15;;;;;;;5.20;3.80;;;;;;;31.04;100.00;100053.68;106225;1256;61362;-92
2023/07/14 06:27:05;;;;;;;4.70;3.50;;;;;;;31.13;100.00;100048.85;106225;1256;63884;-93
2023/07/14 06:29:59;;;;;;;5.90;3.70;;;;;;;31.23;100.00;100050.77;106037;1261;61363;-92
2023/07/14 06:32:47;;;;;;;7.30;4.50;;;;;;;31.35;100.00;100048.22;106157;1256;61376;-92
2023/07/14 06:35:37;;;;;;;7.20;4.00;;;;;;;31.48;100.00;100047.74;106384;1255;65719;-92
2023/07/14 06:38:26;;;;;;;5.60;4.50;;;;;;;31.57;100.00;100043.21;106162;1256;61298;-94
2023/07/14 06:41:15;;;;;;;6.20;4.30;;;;;;;31.63;100.00;100038.25;106304;1256;63994;-92
2023/07/14 06:44:03;;;;;;;6.60;4.90;;;;;;;31.92;100.00;100030.96;106214;1256;61300;-92
2023/07/14 06:47:55;;;;;;;7.50;4.90;;;;;;;32.51;100.00;100021.05;106114;1256;61346;-91
2023/07/14 06:51:29;;;;;;;6.00;5.20;;;;;;;33.05;100.00;100016.09;106039;1261;67055;-91
2023/07/14 06:55:01;;;;;;;6.30;4.00;;;;;;;33.53;100.00;100023.15;106205;1256;61340;-91
2023/07/14 06:58:34;;;;;;;5.50;4.40;;;;;;;33.83;100.00;100036.39;106096;1261;62850;-92
2023/07/14 07:02:07;;;;;;;4.90;4.00;;;;;;;34.09;100.00;100041.45;106207;1260;61760;-92
2023/07/14 07:05:21;;;;;;;;;;;;;;;33.54;100.00;100043.48;106422;1256;61121;-92
2023/07/14 07:08:56;;;;;;;4.60;3.90;;;;;;;33.98;100.00;100041.30;106078;1261;66902;-90
2023/07/14 07:12:31;;;;;;;5.10;4.60;;;;;;;34.13;100.00;100043.30;106163;1256;62067;-92
2023/07/14 07:16:06;;;;;;;5.70;4.00;;;;;;;34.20;100.00;100044.14;106222;1260;63847;-90
2023/07/14 07:19:44;;;;;;;6.70;3.80;;;;;;;34.62;100.00;100042.66;106127;1257;61342;-92
2023/07/14 07:23:19;;;;;;;5.30;4.20;;;;;;;34.88;100.00;100044.43;105932;1256;61266;-92
2023/07/14 07:26:54;;;;;;;4.30;3.60;;;;;;;35.06;100.00;100045.36;106151;1255;64868;-91
2023/07/14 07:30:31;;;;;;;6.70;4.90;;;;;;;35.16;100.00;100050.17;106057;1256;61363;-90
2023/07/14 07:34:08;;;;;;;7.50;3.90;;;;;;;35.17;100.00;100051.40;106143;1256;64020;-91
2023/07/14 07:37:43;;;;;;;6.20;4.10;;;;;;;35.12;100.00;100052.72;105932;1255;61178;-92
2023/07/14 07:41:18;;;;;;;5.20;4.30;;;;;;;35.25;100.00;100052.36;106037;1256;61223;-92
2023/07/14 07:44:53;;;;;;;7.50;4.30;;;;;;;35.29;100.00;100061.86;106132;1256;66877;-93
2023/07/14 07:48:28;;;;;;;11.00;3.90;;;;;;;35.24;100.00;100066.24;106150;1260;61448;-91
2023/07/14 14:43:16;;;;;;;6.00;5.10;;;;;;;39.59;84.66;100252.70;106018;1256;68550;-91
2023/07/14 14:46:05;;;;;;;9.00;5.10;;;;;;;39.47;83.76;100254.53;106157;1262;61208;-92
2023/07/14 14:48:57;;;;;;;7.60;5.00;;;;;;;39.24;83.58;100252.46;106011;1257;63955;-92
2023/07/14 14:51:46;;;;;;;8.50;5.00;;;;;;;38.96;80.80;100258.02;106387;1257;61308;-93
2023/07/14 14:54:36;;;;;;;8.30;5.00;;;;;;;38.52;84.15;100258.23;106125;1257;61285;-92
2023/07/14 14:57:25;;;;;;;8.70;5.10;;;;;;;38.31;86.99;100257.71;106040;1262;66798;-91
2023/07/14 15:00:19;;;;;;;5.80;4.70;;;;;;;38.15;90.30;100261.59;106187;1260;62169;-94
2023/07/14 15:03:10;;;;;;;5.40;4.90;;;;;;;37.96;89.81;100257.02;106170;1257;62529;-92
2023/07/14 15:06:00;;;;;;;7.60;4.80;;;;;;;37.80;90.63;100258.92;106160;1260;61158;-92
2023/07/14 15:08:51;;;;;;;5.70;4.90;;;;;;;37.63;91.45;100262.73;106143;1256;61135;-94
2023/07/14 15:11:43;;;;;;;6.10;4.80;;;;;;;37.48;91.83;100263.90;106226;1257;66281;-94
2023/07/14 15:14:35;;;;;;;5.50;4.70;;;;;;;37.22;87.86;100265.05;106232;1261;61254;-94
2023/07/14 15:17:27;;;;;;;6.80;4.90;;;;;;;36.96;88.58;100272.58;106215;1260;64056;-92
2023/07/14 15:20:16;;;;;;;8.10;5.30;;;;;;;36.86;89.37;100276.79;106149;1257;61217;-91
2023/07/14 15:23:07;;;;;;;5.40;4.70;;;;;;;36.72;86.67;100278.70;106119;1258;61180;-91
2023/07/14 15:26:01;;;;;;;7.60;4.80;;;;;;;36.52;85.44;100274.55;105958;1260;67306;-92
2023/07/14 15:28:51;;;;;;;6.60;4.40;;;;;;;36.40;82.45;100280.15;106219;1264;61288;-92
2023/07/14 15:31:44;;;;;;;7.20;4.40;;;;;;;36.20;75.12;100277.52;106217;1261;65280;-93
2023/07/14 15:34:32;;;;;;;6.50;4.70;;;;;;;36.09;65.68;100279.73;106166;1258;61339;-94
2023/07/14 15:37:21;;;;;;;8.90;5.20;;;;;;;36.07;61.57;100285.06;106176;1257;60031;-92
2023/07/14 15:40:15;;;;;;;7.80;4.80;;;;;;;35.99;60.14;100283.88;106215;1257;67161;-94
2023/07/14 15:43:15;;;;;;;7.30;4.40;;;;;;;35.88;59.66;100286.11;106163;1260;61269;-93
2023/07/14 15:46:04;;;;;;;7.50;5.00;;;;;;;35.80;59.13;100290.02;106266;1262;64149;-92
2023/07/14 15:48:55;;;;;;;7.70;4.40;;;;;;;35.68;59.54;100287.51;105991;1257;61169;-93
2023/07/14 15:51:44;;;;;;;6.40;4.70;;;;;;;35.75;60.99;100290.52;106164;1256;61201;-93
2023/07/14 15:54:38;;;;;;;6.40;4.20;;;;;;;35.85;60.42;100295.46;105967;1261;74876;-93
2023/07/14 15:57:47;;;;;;;7.10;4.40;;;;;;;35.83;60.70;100299.34;105894;1260;61364;-96
2023/07/14 16:00:36;;;;;;;6.10;4.40;;;;;;;35.74;60.99;100301.77;106154;1256;65053;-93
2023/07/14 16:03:27;;;;;;;6.20;4.50;;;;;;;35.57;62.12;100307.00;105985;1260;61190;-93
2023/07/14 16:06:16;;;;;;;7.20;4.10;;;;;;;35.52;60.72;100311.79;106167;1258;61340;-94
2023/07/14 16:09:05;;;;;;;8.20;5.10;;;;;;;35.42;61.51;100313.98;106147;1257;65878;-94
2023/07/14 16:11:56;;;;;;;7.50;4.60;;;;;;;35.34;62.28;100317.88;106036;1266;61292;-92
2023/07/14 16:14:45;;;;;;;5.90;4.30;;;;;;;35.35;62.28;100319.30;106190;1260;64863;-93
2023/07/14 16:17:34;;;;;;;10.60;4.80;;;;;;;35.25;62.21;100323.09;105829;1257;390096;-92
2023/07/14 16:20:25;;;;;;;9.20;4.70;;;;;;;35.11;61.78;100328.97;105888;1263;61326;-92
2023/07/14 16:23:22;;;;;;;4.90;4.40;;;;;;;35.12;61.79;100329.61;106067;1263;66743;-92
2023/07/14 16:26:11;;;;;;;6.50;4.60;;;;;;;34.88;63.04;100329.79;106189;1260;60306;-92
2023/07/14 16:29:06;;;;;;;6.10;4.30;;;;;;;34.69;64.86;100331.46;106069;1257;64019;-93
2023/07/14 16:31:56;;;;;;;8.20;4.20;;;;;;;34.51;66.93;100333.13;106278;1258;61276;-92
2023/07/14 16:34:46;;;;;;;6.50;4.10;;;;;;;34.40;67.16;100335.15;106213;1260;61155;-91
2023/07/14 16:37:35;;;;;;;4.60;3.90;;;;;;;34.42;67.69;100336.31;106143;1263;64789;-93
2023/07/14 16:40:27;;;;;;;6.50;4.40;;;;;;;34.37;68.50;100338.63;106225;1258;61279;-93
2023/07/14 16:43:20;;;;;;;5.80;4.00;;;;;;;34.28;68.55;100342.91;106049;1257;65125;-91
2023/07/14 16:46:09;;;;;;;;;;;;;;;34.19;68.97;100346.80;106353;1258;61339;-92
2023/07/14 16:48:58;;;;;;;6.10;4.10;;;;;;;34.11;68.70;100350.80;106084;1256;61160;-92
2023/07/14 16:51:49;;;;;;;6.10;3.80;;;;;;;34.04;69.45;100356.86;106150;1257;67433;-93
2023/07/14 16:54:38;;;;;;;6.40;3.90;;;;;;;33.95;70.18;100359.92;106175;1257;61274;-92
2023/07/14 16:57:28;;;;;;;8.80;4.30;;;;;;;33.90;70.16;100363.85;106399;1257;62734;-93
2023/07/14 17:00:28;;;;;;;4.70;3.50;;;;;;;33.84;70.06;100368.30;106307;1263;61093;-91
2023/07/14 17:03:18;;;;;;;7.00;4.20;;;;;;;33.81;70.00;100366.58;106091;1261;61294;-93
2023/07/14 17:06:10;;;;;;;5.40;3.40;;;;;;;33.69;69.65;100367.27;106063;1256;64862;-90
2023/07/14 17:09:01;;;;;;;7.20;3.30;;;;;;;33.65;68.26;100372.86;106213;1258;62892;-91
2023/07/14 17:11:51;;;;;;;3.60;3.10;;;;;;;33.50;64.89;100373.75;106103;1263;65055;-91
2023/07/14 17:14:42;;;;;;;5.50;3.70;;;;;;;33.30;64.31;100372.17;106553;1257;61062;-92
2023/07/14 17:17:33;;;;;;;3.90;3.20;;;;;;;33.20;63.37;100374.97;106273;1256;61190;-92
2023/07/14 17:20:22;;;;;;;5.50;3.40;;;;;;;33.17;62.74;100379.48;106257;1260;67036;-92
2023/07/14 17:23:15;;;;;;;4.00;2.70;;;;;;;33.10;61.45;100388.79;106127;1261;61002;-92
2023/07/14 17:26:04;;;;;;;6.80;2.90;;;;;;;32.92;59.67;100388.56;106076;1260;63896;-92
2023/07/14 17:28:53;;;;;;;6.90;2.60;;;;;;;32.74;57.88;100388.33;106122;1257;61195;-91
2023/07/14 17:31:42;;;;;;;5.40;2.80;;;;;;;32.64;57.42;100395.55;106197;1257;61369;-92
2023/07/14 17:34:31;;;;;;;4.60;2.30;;;;;;;32.53;57.46;100399.77;106041;1257;65970;-93
2023/07/14 17:37:22;;;;;;;5.30;2.90;;;;;;;32.44;56.98;100398.78;106158;1258;61186;-94
2023/07/14 17:40:14;;;;;;;2.80;2.40;;;;;;;32.35;56.63;100404.52;106245;1257;64039;-92
2023/07/14 17:43:10;;;;;;;5.60;2.70;;;;;;;32.25;56.21;100410.02;106265;1257;61339;-93
2023/07/14 17:45:58;;;;;;;3.40;2.40;;;;;;;32.20;55.84;100411.07;106191;1257;61333;-94
2023/07/14 17:48:47;;;;;;;5.30;2.70;;;;;;;32.15;56.23;100413.66;106048;1257;65810;-93
2023/07/14 17:51:36;;;;;;;7.30;2.80;;;;;;;32.07;57.02;100413.30;106173;1256;61283;-92
2023/07/14 17:54:26;;;;;;;5.80;2.50;;;;;;;31.96;58.13;100411.27;106185;1257;63953;-93
2023/07/14 17:57:16;;;;;;;4.70;3.00;;;;;;;31.87;59.00;100413.09;106106;1257;61126;-93
2023/07/14 18:00:06;;;;;;;4.90;3.20;;;;;;;31.83;59.41;100419.06;106119;1257;61183;-93
2023/07/14 18:02:59;;;;;;;9.30;3.30;;;;;;;31.80;59.13;100426.36;106199;1258;66178;-93
2023/07/14 18:05:48;;;;;;;5.60;2.80;;;;;;;31.67;59.33;100425.25;106065;1256;61324;-93
2023/07/14 18:08:38;;;;;;;3.80;2.80;;;;;;;31.61;58.52;100427.59;106211;1257;62829;-93
2023/07/14 18:11:27;;;;;;;3.90;2.50;;;;;;;31.60;58.24;100432.84;106759;1251;61275;-92
2023/07/14 18:14:21;;;;;;;3.20;2.70;;;;;;;31.59;58.58;100438.20;106297;1256;61235;-92
2023/07/14 18:17:19;;;;;;;6.80;2.50;;;;;;;31.63;58.72;100441.27;105927;1262;67364;-92
2023/07/14 18:20:14;;;;;;;5.30;3.40;;;;;;;31.63;59.45;100447.00;106092;1257;61267;-92
2023/07/14 18:23:03;;;;;;;4.30;2.80;;;;;;;31.60;60.17;100449.23;106088;1256;63818;-91
2023/07/14 18:25:52;;;;;;;5.90;2.70;;;;;;;31.59;60.60;100448.03;106098;1257;61233;-90
2023/07/14 18:28:42;;;;;;;6.20;2.70;;;;;;;31.58;60.97;100446.13;106126;1257;61258;-91
2023/07/14 18:31:32;;;;;;;4.80;3.20;;;;;;;31.47;62.04;100449.40;106083;1257;65886;-94
2023/07/14 18:34:20;;;;;;;5.60;3.40;;;;;;;31.47;62.44;100449.71;106105;1259;61265;-92
2023/07/14 18:37:10;;;;;;;8.00;3.50;;;;;;;31.49;62.34;100454.77;105971;1262;65311;-92
2023/07/14 18:39:59;;;;;;;4.30;3.00;;;;;;;31.44;62.38;100460.00;106199;1261;62854;-92
2023/07/14 18:42:49;;;;;;;8.20;3.10;;;;;;;31.45;61.44;100463.61;106025;1256;61190;-92
2023/07/14 18:45:39;;;;;;;4.10;2.90;;;;;;;31.29;61.08;100466.20;106279;1262;65716;-92
2023/07/14 18:48:28;;;;;;;4.40;3.10;;;;;;;31.15;61.25;100467.17;106032;1257;61320;-90
2023/07/14 18:51:22;;;;;;;5.90;2.40;;;;;;;31.03;61.88;100468.84;106128;1257;64385;-91
2023/07/14 18:54:22;;;;;;;2.50;2.30;;;;;;;30.94;62.09;100468.70;106094;1256;61186;-92
2023/07/14 18:57:17;;;;;;;3.60;2.20;;;;;;;30.89;61.84;100475.83;106471;1263;61348;-92
2023/07/14 19:00:10;;;;;;;6.50;2.60;;;;;;;30.73;61.88;100477.00;107701;1258;66990;-93
2023/07/14 19:02:59;;;;;;;8.00;2.30;;;;;;;30.59;62.55;100478.10;106643;1265;61252;-91
2023/07/14 19:05:48;;;;;;;5.10;2.30;;;;;;;30.48;63.18;100482.38;106377;1258;64414;-91
2023/07/14 19:08:38;;;;;;;5.00;2.90;;;;;;;30.40;63.76;100485.56;106408;1262;61345;-91
2023/07/14 19:11:28;;;;;;;5.40;2.40;;;;;;;30.32;64.43;100486.29;106506;1263;61601;-93
2023/07/14 19:14:21;;;;;;;6.50;2.80;;;;;;;30.21;65.54;100492.61;106004;1262;66920;-93
2023/07/14 19:17:13;;;;;;;4.20;2.10;;;;;;;30.14;66.06;100496.13;106268;1261;61277;-91
2023/07/14 19:20:04;;;;;;;2.70;2.10;;;;;;;30.05;66.67;100499.64;106249;1260;63890;-92
2023/07/14 19:22:53;;;;;;;7.00;2.40;;;;;;;29.97;66.85;100497.10;106022;1262;61330;-90
2023/07/14 19:25:41;;;;;;;5.30;2.20;;;;;;;29.85;67.66;100500.95;106081;1257;60026;-91
2023/07/14 19:28:32;;;;;;;3.20;2.20;;;;;;;29.76;68.27;100503.90;106193;1260;66795;-91
2023/07/14 19:31:26;;;;;;;5.00;2.30;;;;;;;29.68;68.84;100501.77;106293;1260;61330;-92
2023/07/14 19:34:22;;;;;;;7.60;2.60;;;;;;;29.65;69.36;100507.16;106123;1262;65041;-90
2023/07/14 19:37:12;;;;;;;5.70;2.30;;;;;;;29.68;69.30;100504.83;106062;1257;61281;-93
2023/07/14 19:40:01;;;;;;;7.00;2.20;;;;;;;29.62;69.81;100505.15;106021;1263;61247;-90
2023/07/14 19:42:52;;;;;;;3.70;2.40;;;;;;;29.54;70.46;100504.13;105978;1263;66016;-91
2023/07/14 19:45:41;;;;;;;6.10;2.40;;;;;;;29.34;72.05;100502.50;105922;1265;61298;-92
2023/07/14 19:48:30;;;;;;;4.00;2.30;;;;;;;29.14;74.06;100506.58;106106;1260;65131;-92
2023/07/14 19:51:23;;;;;;;4.10;2.60;;;;;;;29.04;75.15;100511.96;105947;1262;61233;-92
2023/07/14 19:54:16;;;;;;;5.10;2.70;;;;;;;28.93;76.36;100508.19;105964;1263;61414;-93
2023/07/14 19:57:15;;;;;;;7.50;2.50;;;;;;;28.95;76.95;100508.59;106144;1261;65877;-91
2023/07/14 20:00:11;;;;;;;4.70;2.70;;;;;;;28.89;77.94;100513.01;105909;1261;60038;-90
2023/07/14 20:03:05;;;;;;;9.70;2.70;;;;;;;28.76;79.49;100512.39;106063;1270;63754;-91
2023/07/14 20:05:54;;;;;;;4.00;2.40;;;;;;;28.70;79.94;100512.86;106179;1263;61378;-91
2023/07/14 20:08:47;;;;;;;5.20;2.50;;;;;;;28.57;81.06;100518.41;106196;1260;61224;-90